sensor_id;sensor_type;location;lat;lon;timestamp;P1;durP1;ratioP1;P2;durP2;ratioP2
36423;SDS011;22458;45.328;9.514;2023-02-12T00:02:15;29.83;;;21.60;;
36423;SDS011;22458;45.328;9.514;2023-02-12T00:04:42;30.98;;;18.17;;
36423;SDS011;22458;45.328;9.514;2023-02-12T00:07:08;34.35;;;20.58;;
36423;SDS011;22458;45.328;9.514;2023-02-12T00:09:35;30.65;;;20.55;;
36423;SDS011;22458;45.328;9.514;2023-02-12T00:12:01;31.95;;;21.75;;
36423;SDS011;22458;45.328;9.514;2023-02-12T00:14:27;31.98;;;19.60;;
36423;SDS011;22458;45.328;9.514;2023-02-12T00:16:53;31.00;;;21.13;;
36423;SDS011;22458;45.328;9.514;2023-02-12T00:19:19;29.10;;;19.10;;
36423;SDS011;22458;45.328;9.514;2023-02-12T00:21:44;31.15;;;19.13;;
36423;SDS011;22458;45.328;9.514;2023-02-12T00:24:10;35.70;;;22.48;;
36423;SDS011;22458;45.328;9.514;2023-02-12T00:26:37;36.55;;;21.40;;
36423;SDS011;22458;45.328;9.514;2023-02-12T00:29:03;33.53;;;21.35;;
36423;SDS011;22458;45.328;9.514;2023-02-12T00:31:29;32.88;;;22.08;;
36423;SDS011;22458;45.328;9.514;2023-02-12T00:33:56;30.65;;;19.55;;
36423;SDS011;22458;45.328;9.514;2023-02-12T00:36:24;33.45;;;20.70;;
36423;SDS011;22458;45.328;9.514;2023-02-12T00:38:53;32.30;;;19.50;;
36423;SDS011;22458;45.328;9.514;2023-02-12T00:41:20;31.67;;;20.10;;
36423;SDS011;22458;45.328;9.514;2023-02-12T00:43:46;32.55;;;20.35;;
36423;SDS011;22458;45.328;9.514;2023-02-12T00:46:13;31.42;;;20.90;;
36423;SDS011;22458;45.328;9.514;2023-02-12T00:48:39;32.63;;;20.52;;
36423;SDS011;22458;45.328;9.514;2023-02-12T00:51:05;32.53;;;20.23;;
36423;SDS011;22458;45.328;9.514;2023-02-12T00:53:31;32.90;;;21.15;;
36423;SDS011;22458;45.328;9.514;2023-02-12T00:55:57;36.58;;;21.25;;
36423;SDS011;22458;45.328;9.514;2023-02-12T00:58:23;31.65;;;20.58;;
36423;SDS011;22458;45.328;9.514;2023-02-12T01:00:49;30.70;;;20.67;;
36423;SDS011;22458;45.328;9.514;2023-02-12T01:03:15;34.65;;;20.60;;
36423;SDS011;22458;45.328;9.514;2023-02-12T01:05:41;31.02;;;20.10;;
36423;SDS011;22458;45.328;9.514;2023-02-12T01:08:09;33.33;;;20.27;;
36423;SDS011;22458;45.328;9.514;2023-02-12T01:10:39;31.08;;;20.60;;
36423;SDS011;22458;45.328;9.514;2023-02-12T01:13:09;33.13;;;20.45;;
36423;SDS011;22458;45.328;9.514;2023-02-12T01:15:38;32.17;;;19.80;;
36423;SDS011;22458;45.328;9.514;2023-02-12T01:18:04;32.22;;;20.98;;
36423;SDS011;22458;45.328;9.514;2023-02-12T01:20:30;32.67;;;19.83;;
36423;SDS011;22458;45.328;9.514;2023-02-12T01:22:56;29.65;;;19.13;;
36423;SDS011;22458;45.328;9.514;2023-02-12T01:25:21;30.73;;;19.30;;
36423;SDS011;22458;45.328;9.514;2023-02-12T01:27:48;32.78;;;21.17;;
36423;SDS011;22458;45.328;9.514;2023-02-12T01:30:17;29.35;;;19.42;;
36423;SDS011;22458;45.328;9.514;2023-02-12T01:32:46;31.50;;;20.10;;
36423;SDS011;22458;45.328;9.514;2023-02-12T01:35:12;31.08;;;20.25;;
36423;SDS011;22458;45.328;9.514;2023-02-12T01:37:39;29.85;;;20.00;;
36423;SDS011;22458;45.328;9.514;2023-02-12T01:40:06;33.95;;;19.33;;
36423;SDS011;22458;45.328;9.514;2023-02-12T01:42:33;30.88;;;20.45;;
36423;SDS011;22458;45.328;9.514;2023-02-12T01:47:38;31.15;;;21.02;;
36423;SDS011;22458;45.328;9.514;2023-02-12T01:50:06;34.22;;;21.02;;
36423;SDS011;22458;45.328;9.514;2023-02-12T01:52:34;31.25;;;20.27;;
36423;SDS011;22458;45.328;9.514;2023-02-12T01:55:04;31.65;;;19.98;;
36423;SDS011;22458;45.328;9.514;2023-02-12T01:57:33;30.48;;;19.65;;
36423;SDS011;22458;45.328;9.514;2023-02-12T02:00:04;29.85;;;20.25;;
36423;SDS011;22458;45.328;9.514;2023-02-12T02:02:39;31.60;;;19.90;;
36423;SDS011;22458;45.328;9.514;2023-02-12T02:05:07;33.53;;;21.02;;
36423;SDS011;22458;45.328;9.514;2023-02-12T02:07:32;29.55;;;20.05;;
36423;SDS011;22458;45.328;9.514;2023-02-12T02:09:58;28.52;;;19.42;;
36423;SDS011;22458;45.328;9.514;2023-02-12T02:12:26;34.20;;;20.67;;
36423;SDS011;22458;45.328;9.514;2023-02-12T02:15:12;35.78;;;21.55;;
36423;SDS011;22458;45.328;9.514;2023-02-12T02:31:51;34.50;;;22.25;;
36423;SDS011;22458;45.328;9.514;2023-02-12T02:34:29;31.02;;;19.60;;
36423;SDS011;22458;45.328;9.514;2023-02-12T02:37:13;38.60;;;22.27;;
36423;SDS011;22458;45.328;9.514;2023-02-12T02:44:47;33.47;;;20.90;;
36423;SDS011;22458;45.328;9.514;2023-02-12T02:47:21;31.60;;;20.63;;
36423;SDS011;22458;45.328;9.514;2023-02-12T02:49:59;29.45;;;19.73;;
36423;SDS011;22458;45.328;9.514;2023-02-12T02:52:33;32.30;;;19.83;;
36423;SDS011;22458;45.328;9.514;2023-02-12T02:55:07;32.92;;;20.50;;
36423;SDS011;22458;45.328;9.514;2023-02-12T02:57:40;33.63;;;20.65;;
36423;SDS011;22458;45.328;9.514;2023-02-12T03:00:21;32.00;;;20.83;;
36423;SDS011;22458;45.328;9.514;2023-02-12T03:03:01;34.83;;;22.52;;
36423;SDS011;22458;45.328;9.514;2023-02-12T03:05:43;31.55;;;20.42;;
36423;SDS011;22458;45.328;9.514;2023-02-12T03:08:13;31.98;;;20.98;;
36423;SDS011;22458;45.328;9.514;2023-02-12T03:10:55;35.72;;;22.17;;
36423;SDS011;22458;45.328;9.514;2023-02-12T03:13:28;29.75;;;19.98;;
36423;SDS011;22458;45.328;9.514;2023-02-12T03:15:59;33.95;;;20.77;;
36423;SDS011;22458;45.328;9.514;2023-02-12T03:18:41;34.22;;;20.30;;
36423;SDS011;22458;45.328;9.514;2023-02-12T03:21:23;34.10;;;20.60;;
36423;SDS011;22458;45.328;9.514;2023-02-12T03:24:02;31.60;;;21.27;;
36423;SDS011;22458;45.328;9.514;2023-02-12T03:26:45;29.60;;;20.30;;
36423;SDS011;22458;45.328;9.514;2023-02-12T03:29:15;35.25;;;20.30;;
36423;SDS011;22458;45.328;9.514;2023-02-12T03:31:47;32.55;;;19.98;;
36423;SDS011;22458;45.328;9.514;2023-02-12T03:37:33;31.67;;;19.75;;
36423;SDS011;22458;45.328;9.514;2023-02-12T03:45:37;30.95;;;20.63;;
36423;SDS011;22458;45.328;9.514;2023-02-12T03:48:24;32.60;;;20.58;;
36423;SDS011;22458;45.328;9.514;2023-02-12T03:51:03;30.92;;;19.77;;
36423;SDS011;22458;45.328;9.514;2023-02-12T03:53:39;30.88;;;21.15;;
36423;SDS011;22458;45.328;9.514;2023-02-12T03:56:09;31.30;;;20.98;;
36423;SDS011;22458;45.328;9.514;2023-02-12T03:58:40;27.90;;;19.33;;
36423;SDS011;22458;45.328;9.514;2023-02-12T04:01:07;33.05;;;20.52;;
36423;SDS011;22458;45.328;9.514;2023-02-12T04:03:33;32.17;;;21.08;;
36423;SDS011;22458;45.328;9.514;2023-02-12T04:05:59;31.17;;;20.60;;
36423;SDS011;22458;45.328;9.514;2023-02-12T04:08:25;33.08;;;19.88;;
36423;SDS011;22458;45.328;9.514;2023-02-12T04:13:34;31.52;;;19.50;;
36423;SDS011;22458;45.328;9.514;2023-02-12T04:23:46;30.17;;;20.92;;
36423;SDS011;22458;45.328;9.514;2023-02-12T04:26:36;35.33;;;21.60;;
36423;SDS011;22458;45.328;9.514;2023-02-12T04:34:34;41.75;;;24.20;;
36423;SDS011;22458;45.328;9.514;2023-02-12T04:37:23;39.00;;;23.65;;
36423;SDS011;22458;45.328;9.514;2023-02-12T04:39:55;35.35;;;21.98;;
36423;SDS011;22458;45.328;9.514;2023-02-12T04:42:25;37.22;;;22.50;;
36423;SDS011;22458;45.328;9.514;2023-02-12T04:44:50;33.15;;;21.25;;
36423;SDS011;22458;45.328;9.514;2023-02-12T04:47:16;30.67;;;19.08;;
36423;SDS011;22458;45.328;9.514;2023-02-12T04:49:42;31.08;;;20.00;;
36423;SDS011;22458;45.328;9.514;2023-02-12T04:52:08;31.90;;;19.90;;
36423;SDS011;22458;45.328;9.514;2023-02-12T04:54:35;30.88;;;20.00;;
36423;SDS011;22458;45.328;9.514;2023-02-12T04:57:01;34.00;;;21.45;;
36423;SDS011;22458;45.328;9.514;2023-02-12T04:59:26;32.22;;;19.38;;
36423;SDS011;22458;45.328;9.514;2023-02-12T05:01:52;32.92;;;19.25;;
36423;SDS011;22458;45.328;9.514;2023-02-12T05:04:18;29.67;;;19.95;;
36423;SDS011;22458;45.328;9.514;2023-02-12T05:06:44;28.95;;;19.00;;
36423;SDS011;22458;45.328;9.514;2023-02-12T05:09:12;27.75;;;17.73;;
36423;SDS011;22458;45.328;9.514;2023-02-12T05:11:39;26.83;;;17.63;;
36423;SDS011;22458;45.328;9.514;2023-02-12T05:14:05;30.25;;;20.10;;
36423;SDS011;22458;45.328;9.514;2023-02-12T05:16:31;28.15;;;18.60;;
36423;SDS011;22458;45.328;9.514;2023-02-12T05:18:57;30.75;;;20.30;;
36423;SDS011;22458;45.328;9.514;2023-02-12T05:21:22;32.45;;;18.90;;
36423;SDS011;22458;45.328;9.514;2023-02-12T05:23:48;28.13;;;19.08;;
36423;SDS011;22458;45.328;9.514;2023-02-12T05:26:16;24.83;;;17.15;;
36423;SDS011;22458;45.328;9.514;2023-02-12T05:28:43;28.13;;;18.00;;
36423;SDS011;22458;45.328;9.514;2023-02-12T05:31:10;31.25;;;19.38;;
36423;SDS011;22458;45.328;9.514;2023-02-12T05:33:40;25.80;;;17.45;;
36423;SDS011;22458;45.328;9.514;2023-02-12T05:36:09;27.45;;;18.35;;
36423;SDS011;22458;45.328;9.514;2023-02-12T05:38:37;30.40;;;19.13;;
36423;SDS011;22458;45.328;9.514;2023-02-12T05:41:10;28.83;;;19.55;;
36423;SDS011;22458;45.328;9.514;2023-02-12T05:43:37;30.30;;;18.27;;
36423;SDS011;22458;45.328;9.514;2023-02-12T05:46:04;29.73;;;19.00;;
36423;SDS011;22458;45.328;9.514;2023-02-12T05:48:31;29.15;;;18.63;;
36423;SDS011;22458;45.328;9.514;2023-02-12T05:51:04;28.40;;;18.42;;
36423;SDS011;22458;45.328;9.514;2023-02-12T05:53:31;30.58;;;17.65;;
36423;SDS011;22458;45.328;9.514;2023-02-12T05:56:31;28.08;;;17.95;;
36423;SDS011;22458;45.328;9.514;2023-02-12T05:58:53;31.38;;;18.77;;
36423;SDS011;22458;45.328;9.514;2023-02-12T06:01:21;30.92;;;18.95;;
36423;SDS011;22458;45.328;9.514;2023-02-12T06:03:50;28.52;;;18.35;;
36423;SDS011;22458;45.328;9.514;2023-02-12T06:06:15;30.38;;;18.27;;
36423;SDS011;22458;45.328;9.514;2023-02-12T06:08:41;29.58;;;18.75;;
36423;SDS011;22458;45.328;9.514;2023-02-12T06:11:09;30.58;;;19.85;;
36423;SDS011;22458;45.328;9.514;2023-02-12T06:13:37;28.67;;;19.38;;
36423;SDS011;22458;45.328;9.514;2023-02-12T06:16:03;28.10;;;18.17;;
36423;SDS011;22458;45.328;9.514;2023-02-12T06:18:30;29.00;;;18.50;;
36423;SDS011;22458;45.328;9.514;2023-02-12T06:20:58;27.30;;;17.75;;
36423;SDS011;22458;45.328;9.514;2023-02-12T06:23:24;26.50;;;18.58;;
36423;SDS011;22458;45.328;9.514;2023-02-12T06:25:50;27.48;;;18.05;;
36423;SDS011;22458;45.328;9.514;2023-02-12T06:28:21;30.90;;;19.85;;
36423;SDS011;22458;45.328;9.514;2023-02-12T06:30:47;28.50;;;18.88;;
36423;SDS011;22458;45.328;9.514;2023-02-12T06:33:12;27.38;;;18.35;;
36423;SDS011;22458;45.328;9.514;2023-02-12T06:35:38;26.77;;;17.83;;
36423;SDS011;22458;45.328;9.514;2023-02-12T06:38:04;31.73;;;19.23;;
36423;SDS011;22458;45.328;9.514;2023-02-12T06:40:30;28.30;;;18.60;;
36423;SDS011;22458;45.328;9.514;2023-02-12T06:42:56;30.27;;;18.85;;
36423;SDS011;22458;45.328;9.514;2023-02-12T06:45:22;29.60;;;19.83;;
36423;SDS011;22458;45.328;9.514;2023-02-12T06:47:48;29.60;;;19.88;;
36423;SDS011;22458;45.328;9.514;2023-02-12T06:50:14;31.80;;;19.75;;
36423;SDS011;22458;45.328;9.514;2023-02-12T06:52:40;32.63;;;19.85;;
36423;SDS011;22458;45.328;9.514;2023-02-12T06:55:05;27.83;;;19.05;;
36423;SDS011;22458;45.328;9.514;2023-02-12T06:57:31;30.73;;;20.13;;
36423;SDS011;22458;45.328;9.514;2023-02-12T06:59:57;26.85;;;18.55;;
36423;SDS011;22458;45.328;9.514;2023-02-12T07:02:23;29.35;;;18.08;;
36423;SDS011;22458;45.328;9.514;2023-02-12T07:04:48;27.70;;;18.80;;
36423;SDS011;22458;45.328;9.514;2023-02-12T07:07:14;29.63;;;19.15;;
36423;SDS011;22458;45.328;9.514;2023-02-12T07:09:40;32.03;;;20.23;;
36423;SDS011;22458;45.328;9.514;2023-02-12T07:12:06;29.60;;;19.10;;
36423;SDS011;22458;45.328;9.514;2023-02-12T07:14:32;31.38;;;19.05;;
36423;SDS011;22458;45.328;9.514;2023-02-12T07:16:58;30.75;;;19.25;;
36423;SDS011;22458;45.328;9.514;2023-02-12T07:21:53;28.33;;;18.77;;
36423;SDS011;22458;45.328;9.514;2023-02-12T07:24:19;30.20;;;19.20;;
36423;SDS011;22458;45.328;9.514;2023-02-12T07:26:45;27.73;;;19.50;;
36423;SDS011;22458;45.328;9.514;2023-02-12T07:29:11;31.40;;;20.02;;
36423;SDS011;22458;45.328;9.514;2023-02-12T07:31:37;32.72;;;18.90;;
36423;SDS011;22458;45.328;9.514;2023-02-12T07:34:03;26.42;;;19.30;;
36423;SDS011;22458;45.328;9.514;2023-02-12T07:36:30;32.00;;;20.50;;
36423;SDS011;22458;45.328;9.514;2023-02-12T07:38:57;29.02;;;20.15;;
36423;SDS011;22458;45.328;9.514;2023-02-12T07:41:31;31.13;;;21.20;;
36423;SDS011;22458;45.328;9.514;2023-02-12T07:43:59;31.50;;;20.38;;
36423;SDS011;22458;45.328;9.514;2023-02-12T07:46:33;33.30;;;20.42;;
36423;SDS011;22458;45.328;9.514;2023-02-12T07:49:01;32.47;;;21.02;;
36423;SDS011;22458;45.328;9.514;2023-02-12T07:51:29;33.90;;;20.30;;
36423;SDS011;22458;45.328;9.514;2023-02-12T07:53:57;32.38;;;21.88;;
36423;SDS011;22458;45.328;9.514;2023-02-12T07:56:24;33.70;;;21.85;;
36423;SDS011;22458;45.328;9.514;2023-02-12T07:58:57;31.63;;;20.25;;
36423;SDS011;22458;45.328;9.514;2023-02-12T08:01:29;31.77;;;19.60;;
36423;SDS011;22458;45.328;9.514;2023-02-12T08:03:57;32.83;;;21.25;;
36423;SDS011;22458;45.328;9.514;2023-02-12T08:06:25;35.65;;;21.27;;
36423;SDS011;22458;45.328;9.514;2023-02-12T08:08:54;34.50;;;22.60;;
36423;SDS011;22458;45.328;9.514;2023-02-12T08:11:21;30.40;;;20.70;;
36423;SDS011;22458;45.328;9.514;2023-02-12T08:13:48;29.83;;;19.88;;
36423;SDS011;22458;45.328;9.514;2023-02-12T08:16:15;32.88;;;20.48;;
36423;SDS011;22458;45.328;9.514;2023-02-12T08:18:43;36.08;;;22.40;;
36423;SDS011;22458;45.328;9.514;2023-02-12T08:21:13;31.60;;;20.25;;
36423;SDS011;22458;45.328;9.514;2023-02-12T08:23:44;32.90;;;22.02;;
36423;SDS011;22458;45.328;9.514;2023-02-12T08:26:11;35.00;;;21.83;;
36423;SDS011;22458;45.328;9.514;2023-02-12T08:28:43;33.20;;;21.02;;
36423;SDS011;22458;45.328;9.514;2023-02-12T08:31:12;31.25;;;21.42;;
36423;SDS011;22458;45.328;9.514;2023-02-12T08:33:39;34.42;;;21.58;;
36423;SDS011;22458;45.328;9.514;2023-02-12T08:36:09;37.40;;;21.52;;
36423;SDS011;22458;45.328;9.514;2023-02-12T08:38:37;31.92;;;21.10;;
36423;SDS011;22458;45.328;9.514;2023-02-12T08:41:07;37.67;;;22.67;;
36423;SDS011;22458;45.328;9.514;2023-02-12T08:43:37;32.70;;;21.98;;
36423;SDS011;22458;45.328;9.514;2023-02-12T08:46:04;34.58;;;21.20;;
36423;SDS011;22458;45.328;9.514;2023-02-12T08:48:35;31.60;;;20.85;;
36423;SDS011;22458;45.328;9.514;2023-02-12T08:51:06;36.60;;;22.60;;
36423;SDS011;22458;45.328;9.514;2023-02-12T08:53:32;32.33;;;21.63;;
36423;SDS011;22458;45.328;9.514;2023-02-12T08:55:58;33.20;;;22.58;;
36423;SDS011;22458;45.328;9.514;2023-02-12T08:58:24;33.67;;;23.27;;
36423;SDS011;22458;45.328;9.514;2023-02-12T09:00:49;33.65;;;22.10;;
36423;SDS011;22458;45.328;9.514;2023-02-12T09:03:15;35.60;;;23.42;;
36423;SDS011;22458;45.328;9.514;2023-02-12T09:05:41;33.42;;;22.40;;
36423;SDS011;22458;45.328;9.514;2023-02-12T09:08:07;35.83;;;22.75;;
36423;SDS011;22458;45.328;9.514;2023-02-12T09:10:33;35.50;;;24.08;;
36423;SDS011;22458;45.328;9.514;2023-02-12T09:13:03;38.00;;;23.35;;
36423;SDS011;22458;45.328;9.514;2023-02-12T09:15:30;34.72;;;22.52;;
36423;SDS011;22458;45.328;9.514;2023-02-12T09:18:00;37.10;;;23.48;;
36423;SDS011;22458;45.328;9.514;2023-02-12T09:20:28;33.85;;;23.17;;
36423;SDS011;22458;45.328;9.514;2023-02-12T09:22:54;36.35;;;22.60;;
36423;SDS011;22458;45.328;9.514;2023-02-12T09:25:21;31.35;;;21.73;;
36423;SDS011;22458;45.328;9.514;2023-02-12T09:27:47;31.48;;;22.73;;
36423;SDS011;22458;45.328;9.514;2023-02-12T09:30:13;34.80;;;22.30;;
36423;SDS011;22458;45.328;9.514;2023-02-12T09:32:39;33.13;;;22.02;;
36423;SDS011;22458;45.328;9.514;2023-02-12T09:35:05;31.45;;;22.23;;
36423;SDS011;22458;45.328;9.514;2023-02-12T09:37:31;33.55;;;21.73;;
36423;SDS011;22458;45.328;9.514;2023-02-12T09:39:56;31.48;;;21.05;;
36423;SDS011;22458;45.328;9.514;2023-02-12T09:45:06;33.53;;;21.80;;
36423;SDS011;22458;45.328;9.514;2023-02-12T09:47:51;32.85;;;20.85;;
36423;SDS011;22458;45.328;9.514;2023-02-12T09:52:53;30.98;;;21.05;;
36423;SDS011;22458;45.328;9.514;2023-02-12T09:55:22;35.88;;;21.38;;
36423;SDS011;22458;45.328;9.514;2023-02-12T09:57:53;31.85;;;21.40;;
36423;SDS011;22458;45.328;9.514;2023-02-12T10:00:24;30.35;;;21.48;;
36423;SDS011;22458;45.328;9.514;2023-02-12T10:03:01;32.72;;;23.27;;
36423;SDS011;22458;45.328;9.514;2023-02-12T10:05:31;32.22;;;22.40;;
36423;SDS011;22458;45.328;9.514;2023-02-12T10:10:51;30.95;;;21.25;;
36423;SDS011;22458;45.328;9.514;2023-02-12T10:20:28;29.33;;;20.90;;
36423;SDS011;22458;45.328;9.514;2023-02-12T10:25:50;28.27;;;21.00;;
36423;SDS011;22458;45.328;9.514;2023-02-12T10:28:37;28.27;;;21.45;;
36423;SDS011;22458;45.328;9.514;2023-02-12T10:31:12;29.63;;;21.92;;
36423;SDS011;22458;45.328;9.514;2023-02-12T10:33:51;30.85;;;21.42;;
36423;SDS011;22458;45.328;9.514;2023-02-12T10:41:39;32.22;;;21.73;;
36423;SDS011;22458;45.328;9.514;2023-02-12T10:44:09;31.52;;;23.08;;
36423;SDS011;22458;45.328;9.514;2023-02-12T10:46:35;28.70;;;20.45;;
36423;SDS011;22458;45.328;9.514;2023-02-12T10:49:02;31.90;;;22.58;;
36423;SDS011;22458;45.328;9.514;2023-02-12T10:56:58;29.92;;;21.85;;
36423;SDS011;22458;45.328;9.514;2023-02-12T10:59:29;28.70;;;21.05;;
36423;SDS011;22458;45.328;9.514;2023-02-12T11:01:54;33.78;;;21.77;;
36423;SDS011;22458;45.328;9.514;2023-02-12T11:04:25;27.90;;;20.33;;
36423;SDS011;22458;45.328;9.514;2023-02-12T11:06:58;29.13;;;21.73;;
36423;SDS011;22458;45.328;9.514;2023-02-12T11:09:34;28.70;;;21.15;;
36423;SDS011;22458;45.328;9.514;2023-02-12T11:15:13;25.95;;;19.77;;
36423;SDS011;22458;45.328;9.514;2023-02-12T11:17:42;32.60;;;22.67;;
36423;SDS011;22458;45.328;9.514;2023-02-12T11:22:58;27.73;;;19.42;;
36423;SDS011;22458;45.328;9.514;2023-02-12T11:25:33;25.45;;;18.02;;
36423;SDS011;22458;45.328;9.514;2023-02-12T11:28:17;24.48;;;17.73;;
36423;SDS011;22458;45.328;9.514;2023-02-12T11:30:50;26.20;;;18.60;;
36423;SDS011;22458;45.328;9.514;2023-02-12T11:33:26;27.40;;;17.88;;
36423;SDS011;22458;45.328;9.514;2023-02-12T11:35:57;26.08;;;17.77;;
36423;SDS011;22458;45.328;9.514;2023-02-12T11:38:25;23.55;;;17.80;;
36423;SDS011;22458;45.328;9.514;2023-02-12T11:40:55;25.35;;;17.88;;
36423;SDS011;22458;45.328;9.514;2023-02-12T11:43:23;19.08;;;13.93;;
36423;SDS011;22458;45.328;9.514;2023-02-12T11:50:50;20.20;;;14.25;;
36423;SDS011;22458;45.328;9.514;2023-02-12T11:53:51;21.42;;;14.55;;
36423;SDS011;22458;45.328;9.514;2023-02-12T11:56:13;21.45;;;15.50;;
36423;SDS011;22458;45.328;9.514;2023-02-12T11:58:39;31.23;;;18.27;;
36423;SDS011;22458;45.328;9.514;2023-02-12T12:01:14;18.42;;;13.35;;
36423;SDS011;22458;45.328;9.514;2023-02-12T12:08:56;18.17;;;13.80;;
36423;SDS011;22458;45.328;9.514;2023-02-12T12:11:31;19.70;;;14.48;;
36423;SDS011;22458;45.328;9.514;2023-02-12T12:17:03;22.40;;;15.45;;
36423;SDS011;22458;45.328;9.514;2023-02-12T12:19:58;21.73;;;16.25;;
36423;SDS011;22458;45.328;9.514;2023-02-12T12:25:26;21.52;;;15.23;;
36423;SDS011;22458;45.328;9.514;2023-02-12T12:33:25;19.50;;;14.52;;
36423;SDS011;22458;45.328;9.514;2023-02-12T12:36:07;19.38;;;14.23;;
36423;SDS011;22458;45.328;9.514;2023-02-12T12:41:25;18.35;;;14.23;;
36423;SDS011;22458;45.328;9.514;2023-02-12T12:49:47;19.67;;;14.27;;
36423;SDS011;22458;45.328;9.514;2023-02-12T12:55:10;20.20;;;14.05;;
36423;SDS011;22458;45.328;9.514;2023-02-12T12:58:01;18.98;;;13.82;;
36423;SDS011;22458;45.328;9.514;2023-02-12T13:03:19;20.20;;;14.82;;
36423;SDS011;22458;45.328;9.514;2023-02-12T13:14:07;18.92;;;14.38;;
36423;SDS011;22458;45.328;9.514;2023-02-12T13:16:48;21.08;;;15.13;;
36423;SDS011;22458;45.328;9.514;2023-02-12T13:19:28;22.00;;;14.32;;
36423;SDS011;22458;45.328;9.514;2023-02-12T13:22:20;23.45;;;13.27;;
36423;SDS011;22458;45.328;9.514;2023-02-12T13:24:56;20.58;;;14.05;;
36423;SDS011;22458;45.328;9.514;2023-02-12T13:27:38;17.23;;;13.20;;
36423;SDS011;22458;45.328;9.514;2023-02-12T13:30:16;17.45;;;13.88;;
36423;SDS011;22458;45.328;9.514;2023-02-12T13:33:09;17.67;;;13.35;;
36423;SDS011;22458;45.328;9.514;2023-02-12T13:35:47;16.73;;;12.30;;
36423;SDS011;22458;45.328;9.514;2023-02-12T13:38:18;17.92;;;12.90;;
36423;SDS011;22458;45.328;9.514;2023-02-12T13:40:49;17.05;;;12.82;;
36423;SDS011;22458;45.328;9.514;2023-02-12T13:46:09;18.38;;;14.10;;
36423;SDS011;22458;45.328;9.514;2023-02-12T13:49:24;18.92;;;14.05;;
36423;SDS011;22458;45.328;9.514;2023-02-12T13:51:45;18.27;;;13.65;;
36423;SDS011;22458;45.328;9.514;2023-02-12T13:57:11;21.60;;;15.25;;
36423;SDS011;22458;45.328;9.514;2023-02-12T13:59:40;21.25;;;16.67;;
36423;SDS011;22458;45.328;9.514;2023-02-12T14:07:18;22.48;;;15.70;;
36423;SDS011;22458;45.328;9.514;2023-02-12T14:10:00;23.00;;;16.67;;
36423;SDS011;22458;45.328;9.514;2023-02-12T14:12:35;20.33;;;15.63;;
36423;SDS011;22458;45.328;9.514;2023-02-12T14:25:45;23.75;;;16.38;;
36423;SDS011;22458;45.328;9.514;2023-02-12T14:28:29;21.55;;;15.20;;
36423;SDS011;22458;45.328;9.514;2023-02-12T14:31:46;23.45;;;16.67;;
36423;SDS011;22458;45.328;9.514;2023-02-12T14:39:07;24.63;;;17.48;;
36423;SDS011;22458;45.328;9.514;2023-02-12T15:00:01;22.58;;;16.55;;
36423;SDS011;22458;45.328;9.514;2023-02-12T15:05:35;20.73;;;15.38;;
36423;SDS011;22458;45.328;9.514;2023-02-12T15:08:07;22.17;;;17.15;;
36423;SDS011;22458;45.328;9.514;2023-02-12T15:10:51;26.02;;;16.48;;
36423;SDS011;22458;45.328;9.514;2023-02-12T15:16:44;25.35;;;18.67;;
36423;SDS011;22458;45.328;9.514;2023-02-12T15:21:54;23.85;;;18.02;;
36423;SDS011;22458;45.328;9.514;2023-02-12T15:24:20;24.80;;;18.55;;
36423;SDS011;22458;45.328;9.514;2023-02-12T15:26:51;23.38;;;17.98;;
36423;SDS011;22458;45.328;9.514;2023-02-12T15:29:20;23.67;;;18.85;;
36423;SDS011;22458;45.328;9.514;2023-02-12T15:31:52;26.42;;;20.02;;
36423;SDS011;22458;45.328;9.514;2023-02-12T15:34:23;22.35;;;17.08;;
36423;SDS011;22458;45.328;9.514;2023-02-12T15:36:52;22.75;;;18.65;;
36423;SDS011;22458;45.328;9.514;2023-02-12T15:41:48;26.77;;;19.23;;
36423;SDS011;22458;45.328;9.514;2023-02-12T15:44:19;25.83;;;20.42;;
36423;SDS011;22458;45.328;9.514;2023-02-12T15:46:57;22.17;;;19.20;;
36423;SDS011;22458;45.328;9.514;2023-02-12T15:49:34;27.70;;;18.80;;
36423;SDS011;22458;45.328;9.514;2023-02-12T15:52:07;24.02;;;17.85;;
36423;SDS011;22458;45.328;9.514;2023-02-12T15:54:33;21.05;;;15.30;;
36423;SDS011;22458;45.328;9.514;2023-02-12T15:57:00;19.48;;;13.93;;
36423;SDS011;22458;45.328;9.514;2023-02-12T15:59:33;20.25;;;14.13;;
36423;SDS011;22458;45.328;9.514;2023-02-12T16:02:00;17.90;;;13.68;;
36423;SDS011;22458;45.328;9.514;2023-02-12T16:04:28;17.42;;;13.90;;
36423;SDS011;22458;45.328;9.514;2023-02-12T16:06:57;18.85;;;14.38;;
36423;SDS011;22458;45.328;9.514;2023-02-12T16:09:31;20.98;;;14.52;;
36423;SDS011;22458;45.328;9.514;2023-02-12T16:12:01;17.92;;;14.52;;
36423;SDS011;22458;45.328;9.514;2023-02-12T16:14:42;18.38;;;14.40;;
36423;SDS011;22458;45.328;9.514;2023-02-12T16:17:19;23.23;;;15.88;;
36423;SDS011;22458;45.328;9.514;2023-02-12T16:22:31;23.23;;;16.02;;
36423;SDS011;22458;45.328;9.514;2023-02-12T16:24:58;23.20;;;17.48;;
36423;SDS011;22458;45.328;9.514;2023-02-12T16:27:26;20.70;;;16.35;;
36423;SDS011;22458;45.328;9.514;2023-02-12T16:30:01;25.67;;;17.73;;
36423;SDS011;22458;45.328;9.514;2023-02-12T16:32:46;23.92;;;17.95;;
36423;SDS011;22458;45.328;9.514;2023-02-12T16:37:47;25.35;;;17.88;;
36423;SDS011;22458;45.328;9.514;2023-02-12T16:47:50;21.40;;;16.88;;
36423;SDS011;22458;45.328;9.514;2023-02-12T16:50:18;23.58;;;18.17;;
36423;SDS011;22458;45.328;9.514;2023-02-12T16:52:47;24.15;;;17.70;;
36423;SDS011;22458;45.328;9.514;2023-02-12T16:55:14;22.75;;;17.55;;
36423;SDS011;22458;45.328;9.514;2023-02-12T16:57:42;26.83;;;19.65;;
36423;SDS011;22458;45.328;9.514;2023-02-12T17:00:13;24.95;;;17.38;;
36423;SDS011;22458;45.328;9.514;2023-02-12T17:02:40;25.13;;;18.02;;
36423;SDS011;22458;45.328;9.514;2023-02-12T17:05:06;26.08;;;17.65;;
36423;SDS011;22458;45.328;9.514;2023-02-12T17:07:33;23.83;;;17.67;;
36423;SDS011;22458;45.328;9.514;2023-02-12T17:09:59;24.25;;;18.73;;
36423;SDS011;22458;45.328;9.514;2023-02-12T17:12:25;24.85;;;18.50;;
36423;SDS011;22458;45.328;9.514;2023-02-12T17:14:51;25.30;;;18.13;;
36423;SDS011;22458;45.328;9.514;2023-02-12T17:17:17;26.92;;;18.77;;
36423;SDS011;22458;45.328;9.514;2023-02-12T17:19:43;25.35;;;19.23;;
36423;SDS011;22458;45.328;9.514;2023-02-12T17:22:15;27.00;;;18.90;;
36423;SDS011;22458;45.328;9.514;2023-02-12T17:24:44;25.95;;;17.90;;
36423;SDS011;22458;45.328;9.514;2023-02-12T17:27:15;25.52;;;19.85;;
36423;SDS011;22458;45.328;9.514;2023-02-12T17:29:42;28.83;;;20.00;;
36423;SDS011;22458;45.328;9.514;2023-02-12T17:32:07;24.92;;;18.50;;
36423;SDS011;22458;45.328;9.514;2023-02-12T17:34:33;28.85;;;21.23;;
36423;SDS011;22458;45.328;9.514;2023-02-12T17:37:04;32.85;;;20.27;;
36423;SDS011;22458;45.328;9.514;2023-02-12T17:39:30;26.23;;;19.77;;
36423;SDS011;22458;45.328;9.514;2023-02-12T17:41:56;28.67;;;20.00;;
36423;SDS011;22458;45.328;9.514;2023-02-12T17:44:24;30.75;;;20.25;;
36423;SDS011;22458;45.328;9.514;2023-02-12T17:46:50;26.15;;;20.65;;
36423;SDS011;22458;45.328;9.514;2023-02-12T17:49:17;29.02;;;21.48;;
36423;SDS011;22458;45.328;9.514;2023-02-12T17:51:43;27.65;;;20.58;;
36423;SDS011;22458;45.328;9.514;2023-02-12T17:54:09;25.23;;;19.08;;
36423;SDS011;22458;45.328;9.514;2023-02-12T17:56:34;31.02;;;20.65;;